sensor_id;sensor_type;location;lat;lon;timestamp;P1;durP1;ratioP1;P2;durP2;ratioP2
4806;SDS011;2417;52.482;13.432;2022-10-31T00:01:27;75.13;;;38.80;;
4806;SDS011;2417;52.482;13.432;2022-10-31T00:03:55;70.57;;;37.80;;
4806;SDS011;2417;52.482;13.432;2022-10-31T00:06:22;73.13;;;38.17;;
4806;SDS011;2417;52.482;13.432;2022-10-31T00:08:51;74.47;;;35.50;;
4806;SDS011;2417;52.482;13.432;2022-10-31T00:11:19;63.53;;;33.50;;
4806;SDS011;2417;52.482;13.432;2022-10-31T00:13:48;66.27;;;32.40;;
4806;SDS011;2417;52.482;13.432;2022-10-31T00:16:16;69.50;;;35.90;;
4806;SDS011;2417;52.482;13.432;2022-10-31T00:18:47;62.57;;;34.13;;
4806;SDS011;2417;52.482;13.432;2022-10-31T00:21:14;62.43;;;33.87;;
4806;SDS011;2417;52.482;13.432;2022-10-31T00:23:42;54.67;;;29.70;;
4806;SDS011;2417;52.482;13.432;2022-10-31T00:26:10;73.00;;;31.80;;
4806;SDS011;2417;52.482;13.432;2022-10-31T00:28:37;60.03;;;30.27;;
4806;SDS011;2417;52.482;13.432;2022-10-31T00:31:07;62.10;;;31.90;;
4806;SDS011;2417;52.482;13.432;2022-10-31T00:33:36;67.27;;;30.20;;
4806;SDS011;2417;52.482;13.432;2022-10-31T00:36:04;59.50;;;29.63;;
4806;SDS011;2417;52.482;13.432;2022-10-31T00:38:32;57.33;;;31.20;;
4806;SDS011;2417;52.482;13.432;2022-10-31T00:41:00;63.63;;;29.47;;
4806;SDS011;2417;52.482;13.432;2022-10-31T00:43:27;54.83;;;28.60;;
4806;SDS011;2417;52.482;13.432;2022-10-31T00:45:55;53.80;;;29.63;;
4806;SDS011;2417;52.482;13.432;2022-10-31T00:48:25;50.60;;;27.70;;
4806;SDS011;2417;52.482;13.432;2022-10-31T00:50:53;61.93;;;28.10;;
4806;SDS011;2417;52.482;13.432;2022-10-31T00:53:21;54.33;;;29.80;;
4806;SDS011;2417;52.482;13.432;2022-10-31T00:55:49;57.83;;;27.27;;
4806;SDS011;2417;52.482;13.432;2022-10-31T00:58:16;64.57;;;28.73;;
4806;SDS011;2417;52.482;13.432;2022-10-31T01:00:46;59.97;;;28.93;;
4806;SDS011;2417;52.482;13.432;2022-10-31T01:03:17;57.03;;;28.83;;
4806;SDS011;2417;52.482;13.432;2022-10-31T01:05:54;51.23;;;27.07;;
4806;SDS011;2417;52.482;13.432;2022-10-31T01:08:21;48.33;;;27.47;;
4806;SDS011;2417;52.482;13.432;2022-10-31T01:10:57;51.83;;;28.33;;
4806;SDS011;2417;52.482;13.432;2022-10-31T01:13:25;57.37;;;28.47;;
4806;SDS011;2417;52.482;13.432;2022-10-31T01:15:53;51.37;;;28.50;;
4806;SDS011;2417;52.482;13.432;2022-10-31T01:18:21;56.10;;;27.90;;
4806;SDS011;2417;52.482;13.432;2022-10-31T01:20:57;62.40;;;28.83;;
4806;SDS011;2417;52.482;13.432;2022-10-31T01:23:25;49.93;;;27.10;;
4806;SDS011;2417;52.482;13.432;2022-10-31T01:26:04;55.80;;;28.47;;
4806;SDS011;2417;52.482;13.432;2022-10-31T01:28:33;54.53;;;27.90;;
4806;SDS011;2417;52.482;13.432;2022-10-31T01:31:01;59.50;;;27.07;;
4806;SDS011;2417;52.482;13.432;2022-10-31T01:33:29;48.23;;;27.77;;
4806;SDS011;2417;52.482;13.432;2022-10-31T01:35:59;56.20;;;27.90;;
4806;SDS011;2417;52.482;13.432;2022-10-31T01:38:27;54.40;;;28.30;;
4806;SDS011;2417;52.482;13.432;2022-10-31T01:40:54;59.10;;;27.57;;
4806;SDS011;2417;52.482;13.432;2022-10-31T01:43:22;54.87;;;26.70;;
4806;SDS011;2417;52.482;13.432;2022-10-31T01:45:51;59.53;;;28.83;;
4806;SDS011;2417;52.482;13.432;2022-10-31T01:48:21;52.93;;;28.03;;
4806;SDS011;2417;52.482;13.432;2022-10-31T01:50:51;54.63;;;28.93;;
4806;SDS011;2417;52.482;13.432;2022-10-31T01:53:22;52.63;;;28.23;;
4806;SDS011;2417;52.482;13.432;2022-10-31T01:55:52;58.83;;;27.20;;
4806;SDS011;2417;52.482;13.432;2022-10-31T01:58:21;55.77;;;27.37;;
4806;SDS011;2417;52.482;13.432;2022-10-31T02:00:51;55.97;;;29.17;;
4806;SDS011;2417;52.482;13.432;2022-10-31T02:03:21;55.70;;;26.87;;
4806;SDS011;2417;52.482;13.432;2022-10-31T02:05:49;53.87;;;27.87;;
4806;SDS011;2417;52.482;13.432;2022-10-31T02:08:23;54.83;;;28.13;;
4806;SDS011;2417;52.482;13.432;2022-10-31T02:10:52;55.63;;;26.60;;
4806;SDS011;2417;52.482;13.432;2022-10-31T02:13:22;50.57;;;27.07;;
4806;SDS011;2417;52.482;13.432;2022-10-31T02:15:52;47.73;;;27.37;;
4806;SDS011;2417;52.482;13.432;2022-10-31T02:18:20;57.30;;;27.23;;
4806;SDS011;2417;52.482;13.432;2022-10-31T02:20:52;50.37;;;26.80;;
4806;SDS011;2417;52.482;13.432;2022-10-31T02:23:33;47.67;;;25.90;;
4806;SDS011;2417;52.482;13.432;2022-10-31T02:26:14;56.93;;;27.00;;
4806;SDS011;2417;52.482;13.432;2022-10-31T02:28:52;53.90;;;27.97;;
4806;SDS011;2417;52.482;13.432;2022-10-31T02:31:27;54.73;;;27.07;;
4806;SDS011;2417;52.482;13.432;2022-10-31T02:33:59;51.30;;;27.07;;
4806;SDS011;2417;52.482;13.432;2022-10-31T02:36:29;58.63;;;26.97;;
4806;SDS011;2417;52.482;13.432;2022-10-31T02:39:01;54.47;;;27.03;;
4806;SDS011;2417;52.482;13.432;2022-10-31T02:41:37;47.20;;;26.87;;
4806;SDS011;2417;52.482;13.432;2022-10-31T02:44:12;50.80;;;26.73;;
4806;SDS011;2417;52.482;13.432;2022-10-31T02:46:44;54.73;;;26.60;;
4806;SDS011;2417;52.482;13.432;2022-10-31T02:49:18;50.90;;;26.43;;
4806;SDS011;2417;52.482;13.432;2022-10-31T02:51:50;49.93;;;26.50;;
4806;SDS011;2417;52.482;13.432;2022-10-31T02:54:19;48.70;;;26.40;;
4806;SDS011;2417;52.482;13.432;2022-10-31T02:56:52;48.30;;;26.43;;
4806;SDS011;2417;52.482;13.432;2022-10-31T02:59:21;48.07;;;25.20;;
4806;SDS011;2417;52.482;13.432;2022-10-31T03:01:54;55.43;;;27.07;;
4806;SDS011;2417;52.482;13.432;2022-10-31T03:04:40;53.60;;;25.87;;
4806;SDS011;2417;52.482;13.432;2022-10-31T03:07:15;54.20;;;25.07;;
4806;SDS011;2417;52.482;13.432;2022-10-31T03:09:50;49.77;;;25.70;;
4806;SDS011;2417;52.482;13.432;2022-10-31T03:12:22;52.73;;;26.20;;
4806;SDS011;2417;52.482;13.432;2022-10-31T03:14:53;50.83;;;25.67;;
4806;SDS011;2417;52.482;13.432;2022-10-31T03:17:26;51.63;;;25.77;;
4806;SDS011;2417;52.482;13.432;2022-10-31T03:19:54;57.77;;;25.87;;
4806;SDS011;2417;52.482;13.432;2022-10-31T03:22:25;49.03;;;23.63;;
4806;SDS011;2417;52.482;13.432;2022-10-31T03:24:57;53.50;;;24.30;;
4806;SDS011;2417;52.482;13.432;2022-10-31T03:27:25;42.33;;;23.23;;
4806;SDS011;2417;52.482;13.432;2022-10-31T03:29:54;50.00;;;23.77;;
4806;SDS011;2417;52.482;13.432;2022-10-31T03:32:23;56.47;;;22.67;;
4806;SDS011;2417;52.482;13.432;2022-10-31T03:34:53;42.73;;;22.90;;
4806;SDS011;2417;52.482;13.432;2022-10-31T03:37:24;45.83;;;23.80;;
4806;SDS011;2417;52.482;13.432;2022-10-31T03:39:53;53.00;;;22.37;;
4806;SDS011;2417;52.482;13.432;2022-10-31T03:42:23;49.43;;;22.23;;
4806;SDS011;2417;52.482;13.432;2022-10-31T03:44:53;46.50;;;22.33;;
4806;SDS011;2417;52.482;13.432;2022-10-31T03:47:21;40.60;;;22.83;;
4806;SDS011;2417;52.482;13.432;2022-10-31T03:49:48;46.63;;;21.43;;
4806;SDS011;2417;52.482;13.432;2022-10-31T03:52:21;48.70;;;21.30;;
4806;SDS011;2417;52.482;13.432;2022-10-31T03:54:55;47.17;;;21.30;;
4806;SDS011;2417;52.482;13.432;2022-10-31T03:57:29;39.53;;;20.80;;
4806;SDS011;2417;52.482;13.432;2022-10-31T04:00:04;42.57;;;21.33;;
4806;SDS011;2417;52.482;13.432;2022-10-31T04:02:45;42.37;;;21.50;;
4806;SDS011;2417;52.482;13.432;2022-10-31T04:05:14;41.17;;;21.60;;
4806;SDS011;2417;52.482;13.432;2022-10-31T04:07:45;42.27;;;20.33;;
4806;SDS011;2417;52.482;13.432;2022-10-31T04:10:15;41.27;;;20.50;;
4806;SDS011;2417;52.482;13.432;2022-10-31T04:12:43;42.00;;;19.37;;
4806;SDS011;2417;52.482;13.432;2022-10-31T04:15:18;42.97;;;19.87;;
4806;SDS011;2417;52.482;13.432;2022-10-31T04:17:46;33.40;;;19.37;;
4806;SDS011;2417;52.482;13.432;2022-10-31T04:20:16;42.90;;;20.67;;
4806;SDS011;2417;52.482;13.432;2022-10-31T04:22:46;45.63;;;20.63;;
4806;SDS011;2417;52.482;13.432;2022-10-31T04:25:13;47.20;;;19.73;;
4806;SDS011;2417;52.482;13.432;2022-10-31T04:27:41;42.90;;;20.90;;
4806;SDS011;2417;52.482;13.432;2022-10-31T04:30:09;38.50;;;21.27;;
4806;SDS011;2417;52.482;13.432;2022-10-31T04:32:39;47.93;;;22.17;;
4806;SDS011;2417;52.482;13.432;2022-10-31T04:35:07;42.90;;;20.67;;
4806;SDS011;2417;52.482;13.432;2022-10-31T04:37:35;36.53;;;20.57;;
4806;SDS011;2417;52.482;13.432;2022-10-31T04:40:04;43.00;;;21.50;;
4806;SDS011;2417;52.482;13.432;2022-10-31T04:42:41;46.57;;;21.50;;
4806;SDS011;2417;52.482;13.432;2022-10-31T04:45:09;45.73;;;20.90;;
4806;SDS011;2417;52.482;13.432;2022-10-31T04:47:44;50.73;;;20.80;;
4806;SDS011;2417;52.482;13.432;2022-10-31T04:50:11;49.00;;;21.63;;
4806;SDS011;2417;52.482;13.432;2022-10-31T04:52:39;42.03;;;21.10;;
4806;SDS011;2417;52.482;13.432;2022-10-31T04:55:10;34.13;;;19.90;;
4806;SDS011;2417;52.482;13.432;2022-10-31T04:57:44;44.77;;;20.97;;
4806;SDS011;2417;52.482;13.432;2022-10-31T05:00:14;40.27;;;20.40;;
4806;SDS011;2417;52.482;13.432;2022-10-31T05:02:43;44.13;;;21.20;;
4806;SDS011;2417;52.482;13.432;2022-10-31T05:05:11;43.33;;;20.83;;
4806;SDS011;2417;52.482;13.432;2022-10-31T05:07:39;53.50;;;21.70;;
4806;SDS011;2417;52.482;13.432;2022-10-31T05:10:10;48.97;;;21.13;;
4806;SDS011;2417;52.482;13.432;2022-10-31T05:12:44;37.93;;;21.20;;
4806;SDS011;2417;52.482;13.432;2022-10-31T05:15:32;48.40;;;21.10;;
4806;SDS011;2417;52.482;13.432;2022-10-31T05:18:19;49.97;;;22.43;;
4806;SDS011;2417;52.482;13.432;2022-10-31T05:21:09;41.23;;;22.00;;
4806;SDS011;2417;52.482;13.432;2022-10-31T05:23:43;43.97;;;21.07;;
4806;SDS011;2417;52.482;13.432;2022-10-31T05:26:17;48.97;;;21.60;;
4806;SDS011;2417;52.482;13.432;2022-10-31T05:28:46;43.10;;;21.30;;
4806;SDS011;2417;52.482;13.432;2022-10-31T05:31:14;44.70;;;23.47;;
4806;SDS011;2417;52.482;13.432;2022-10-31T05:33:42;42.53;;;21.53;;
4806;SDS011;2417;52.482;13.432;2022-10-31T05:36:28;48.70;;;22.00;;
4806;SDS011;2417;52.482;13.432;2022-10-31T05:39:02;53.60;;;23.23;;
4806;SDS011;2417;52.482;13.432;2022-10-31T05:41:39;52.27;;;22.83;;
4806;SDS011;2417;52.482;13.432;2022-10-31T05:44:13;43.77;;;21.37;;
4806;SDS011;2417;52.482;13.432;2022-10-31T05:46:53;41.57;;;21.80;;
4806;SDS011;2417;52.482;13.432;2022-10-31T05:49:30;45.90;;;22.63;;
4806;SDS011;2417;52.482;13.432;2022-10-31T05:52:16;53.30;;;23.20;;
4806;SDS011;2417;52.482;13.432;2022-10-31T05:54:52;46.23;;;22.47;;
4806;SDS011;2417;52.482;13.432;2022-10-31T05:57:21;41.60;;;21.77;;
4806;SDS011;2417;52.482;13.432;2022-10-31T05:59:49;49.30;;;22.43;;
4806;SDS011;2417;52.482;13.432;2022-10-31T06:02:22;41.67;;;22.20;;
4806;SDS011;2417;52.482;13.432;2022-10-31T06:05:09;47.83;;;22.80;;
4806;SDS011;2417;52.482;13.432;2022-10-31T06:07:37;46.53;;;22.57;;
4806;SDS011;2417;52.482;13.432;2022-10-31T06:10:06;44.27;;;23.17;;
4806;SDS011;2417;52.482;13.432;2022-10-31T06:12:36;45.73;;;22.30;;
4806;SDS011;2417;52.482;13.432;2022-10-31T06:15:15;42.03;;;21.90;;
4806;SDS011;2417;52.482;13.432;2022-10-31T06:17:56;47.30;;;22.60;;
4806;SDS011;2417;52.482;13.432;2022-10-31T06:20:26;51.67;;;23.27;;
4806;SDS011;2417;52.482;13.432;2022-10-31T06:22:59;45.37;;;22.53;;
4806;SDS011;2417;52.482;13.432;2022-10-31T06:25:30;50.90;;;22.90;;
4806;SDS011;2417;52.482;13.432;2022-10-31T06:27:59;49.50;;;21.73;;
4806;SDS011;2417;52.482;13.432;2022-10-31T06:30:40;45.73;;;21.20;;
4806;SDS011;2417;52.482;13.432;2022-10-31T06:33:09;46.03;;;22.60;;
4806;SDS011;2417;52.482;13.432;2022-10-31T06:35:44;49.40;;;22.03;;
4806;SDS011;2417;52.482;13.432;2022-10-31T06:38:12;44.43;;;22.07;;
4806;SDS011;2417;52.482;13.432;2022-10-31T06:40:41;47.30;;;22.33;;
4806;SDS011;2417;52.482;13.432;2022-10-31T06:43:36;46.97;;;22.00;;
4806;SDS011;2417;52.482;13.432;2022-10-31T06:46:32;49.30;;;21.43;;
4806;SDS011;2417;52.482;13.432;2022-10-31T06:49:24;46.33;;;21.87;;
4806;SDS011;2417;52.482;13.432;2022-10-31T06:51:53;53.43;;;21.97;;
4806;SDS011;2417;52.482;13.432;2022-10-31T06:54:22;53.43;;;21.83;;
4806;SDS011;2417;52.482;13.432;2022-10-31T06:56:50;45.80;;;22.70;;
4806;SDS011;2417;52.482;13.432;2022-10-31T06:59:19;45.90;;;22.87;;
4806;SDS011;2417;52.482;13.432;2022-10-31T07:02:07;48.60;;;22.70;;
4806;SDS011;2417;52.482;13.432;2022-10-31T07:04:37;56.00;;;23.13;;
4806;SDS011;2417;52.482;13.432;2022-10-31T07:07:06;57.13;;;24.17;;
4806;SDS011;2417;52.482;13.432;2022-10-31T07:09:36;44.63;;;22.07;;
4806;SDS011;2417;52.482;13.432;2022-10-31T07:12:04;45.33;;;22.90;;
4806;SDS011;2417;52.482;13.432;2022-10-31T07:14:38;45.23;;;21.60;;
4806;SDS011;2417;52.482;13.432;2022-10-31T07:17:05;42.47;;;20.67;;
4806;SDS011;2417;52.482;13.432;2022-10-31T07:19:37;47.03;;;20.93;;
4806;SDS011;2417;52.482;13.432;2022-10-31T07:22:05;45.70;;;21.20;;
4806;SDS011;2417;52.482;13.432;2022-10-31T07:24:34;46.77;;;21.20;;
4806;SDS011;2417;52.482;13.432;2022-10-31T07:27:20;51.43;;;21.00;;
4806;SDS011;2417;52.482;13.432;2022-10-31T07:29:50;48.23;;;21.67;;
4806;SDS011;2417;52.482;13.432;2022-10-31T07:32:17;51.93;;;22.33;;
4806;SDS011;2417;52.482;13.432;2022-10-31T07:34:51;39.23;;;20.47;;
4806;SDS011;2417;52.482;13.432;2022-10-31T07:37:23;43.67;;;20.00;;
4806;SDS011;2417;52.482;13.432;2022-10-31T07:39:56;46.47;;;19.80;;
4806;SDS011;2417;52.482;13.432;2022-10-31T07:42:23;44.80;;;19.40;;
4806;SDS011;2417;52.482;13.432;2022-10-31T07:44:53;47.87;;;20.33;;
4806;SDS011;2417;52.482;13.432;2022-10-31T07:47:42;42.07;;;18.80;;
4806;SDS011;2417;52.482;13.432;2022-10-31T07:50:32;41.80;;;19.87;;
4806;SDS011;2417;52.482;13.432;2022-10-31T07:53:28;39.53;;;18.70;;
4806;SDS011;2417;52.482;13.432;2022-10-31T07:56:10;39.93;;;20.73;;
4806;SDS011;2417;52.482;13.432;2022-10-31T07:58:39;38.53;;;17.30;;
4806;SDS011;2417;52.482;13.432;2022-10-31T08:01:10;39.70;;;20.00;;
4806;SDS011;2417;52.482;13.432;2022-10-31T08:03:51;41.57;;;19.77;;
4806;SDS011;2417;52.482;13.432;2022-10-31T08:06:38;43.23;;;21.40;;
4806;SDS011;2417;52.482;13.432;2022-10-31T08:09:24;41.23;;;19.77;;
4806;SDS011;2417;52.482;13.432;2022-10-31T08:11:53;46.33;;;22.50;;
4806;SDS011;2417;52.482;13.432;2022-10-31T08:14:21;53.60;;;22.17;;
4806;SDS011;2417;52.482;13.432;2022-10-31T08:16:53;45.80;;;20.23;;
4806;SDS011;2417;52.482;13.432;2022-10-31T08:19:26;47.67;;;21.80;;
4806;SDS011;2417;52.482;13.432;2022-10-31T08:21:54;45.93;;;20.37;;
4806;SDS011;2417;52.482;13.432;2022-10-31T08:24:22;52.70;;;24.10;;
4806;SDS011;2417;52.482;13.432;2022-10-31T08:26:52;57.00;;;22.70;;
4806;SDS011;2417;52.482;13.432;2022-10-31T08:29:20;48.90;;;23.50;;
4806;SDS011;2417;52.482;13.432;2022-10-31T08:31:48;48.93;;;23.13;;
4806;SDS011;2417;52.482;13.432;2022-10-31T08:34:36;52.47;;;24.07;;
4806;SDS011;2417;52.482;13.432;2022-10-31T08:37:31;52.50;;;23.10;;
4806;SDS011;2417;52.482;13.432;2022-10-31T08:39:59;55.37;;;25.07;;
4806;SDS011;2417;52.482;13.432;2022-10-31T08:42:31;51.70;;;22.17;;
4806;SDS011;2417;52.482;13.432;2022-10-31T08:44:59;46.87;;;22.30;;
4806;SDS011;2417;52.482;13.432;2022-10-31T08:47:28;57.97;;;24.23;;
4806;SDS011;2417;52.482;13.432;2022-10-31T08:49:58;56.50;;;24.93;;
4806;SDS011;2417;52.482;13.432;2022-10-31T08:52:26;57.87;;;26.27;;
4806;SDS011;2417;52.482;13.432;2022-10-31T08:55:13;53.70;;;24.77;;
4806;SDS011;2417;52.482;13.432;2022-10-31T08:58:00;45.60;;;23.93;;
4806;SDS011;2417;52.482;13.432;2022-10-31T09:00:37;55.27;;;24.40;;
4806;SDS011;2417;52.482;13.432;2022-10-31T09:03:12;46.63;;;22.17;;
4806;SDS011;2417;52.482;13.432;2022-10-31T09:05:43;46.87;;;21.17;;
4806;SDS011;2417;52.482;13.432;2022-10-31T09:08:11;52.70;;;23.00;;
4806;SDS011;2417;52.482;13.432;2022-10-31T09:10:44;51.40;;;23.90;;
4806;SDS011;2417;52.482;13.432;2022-10-31T09:13:17;54.93;;;23.23;;
4806;SDS011;2417;52.482;13.432;2022-10-31T09:16:24;48.13;;;21.37;;
4806;SDS011;2417;52.482;13.432;2022-10-31T09:19:02;39.70;;;20.40;;
4806;SDS011;2417;52.482;13.432;2022-10-31T09:21:36;44.60;;;21.40;;
4806;SDS011;2417;52.482;13.432;2022-10-31T09:24:04;50.90;;;22.60;;
4806;SDS011;2417;52.482;13.432;2022-10-31T09:26:32;43.53;;;20.90;;
4806;SDS011;2417;52.482;13.432;2022-10-31T09:29:09;52.50;;;21.47;;
4806;SDS011;2417;52.482;13.432;2022-10-31T09:31:38;42.73;;;21.60;;
4806;SDS011;2417;52.482;13.432;2022-10-31T09:34:26;44.77;;;21.77;;
4806;SDS011;2417;52.482;13.432;2022-10-31T09:37:02;46.40;;;21.57;;
4806;SDS011;2417;52.482;13.432;2022-10-31T09:39:33;45.23;;;22.87;;
4806;SDS011;2417;52.482;13.432;2022-10-31T09:42:13;55.53;;;21.40;;
4806;SDS011;2417;52.482;13.432;2022-10-31T09:44:46;44.10;;;21.17;;
4806;SDS011;2417;52.482;13.432;2022-10-31T09:47:35;45.70;;;22.20;;
4806;SDS011;2417;52.482;13.432;2022-10-31T09:50:27;49.07;;;23.00;;
4806;SDS011;2417;52.482;13.432;2022-10-31T09:53:12;46.93;;;21.87;;
4806;SDS011;2417;52.482;13.432;2022-10-31T09:55:42;49.03;;;23.40;;
4806;SDS011;2417;52.482;13.432;2022-10-31T09:58:13;53.17;;;23.30;;
4806;SDS011;2417;52.482;13.432;2022-10-31T10:00:43;48.10;;;25.43;;
4806;SDS011;2417;52.482;13.432;2022-10-31T10:03:14;52.20;;;23.47;;
4806;SDS011;2417;52.482;13.432;2022-10-31T10:05:53;54.67;;;25.63;;
4806;SDS011;2417;52.482;13.432;2022-10-31T10:08:33;54.90;;;24.03;;
4806;SDS011;2417;52.482;13.432;2022-10-31T10:11:26;57.07;;;24.87;;
4806;SDS011;2417;52.482;13.432;2022-10-31T10:14:14;61.33;;;23.77;;
4806;SDS011;2417;52.482;13.432;2022-10-31T10:16:51;58.27;;;22.50;;
4806;SDS011;2417;52.482;13.432;2022-10-31T10:19:24;49.93;;;23.53;;
4806;SDS011;2417;52.482;13.432;2022-10-31T10:21:59;48.17;;;23.73;;
4806;SDS011;2417;52.482;13.432;2022-10-31T10:24:31;47.27;;;23.70;;
4806;SDS011;2417;52.482;13.432;2022-10-31T10:27:04;51.67;;;23.53;;
4806;SDS011;2417;52.482;13.432;2022-10-31T10:29:34;47.43;;;24.20;;
4806;SDS011;2417;52.482;13.432;2022-10-31T10:32:05;58.90;;;24.67;;
4806;SDS011;2417;52.482;13.432;2022-10-31T10:34:36;48.80;;;25.20;;
4806;SDS011;2417;52.482;13.432;2022-10-31T10:37:09;54.13;;;25.23;;
4806;SDS011;2417;52.482;13.432;2022-10-31T10:39:40;52.03;;;25.40;;
4806;SDS011;2417;52.482;13.432;2022-10-31T10:42:10;55.47;;;25.00;;
4806;SDS011;2417;52.482;13.432;2022-10-31T10:44:56;51.27;;;25.10;;
4806;SDS011;2417;52.482;13.432;2022-10-31T10:47:42;49.07;;;24.60;;
4806;SDS011;2417;52.482;13.432;2022-10-31T10:50:13;47.00;;;23.50;;
4806;SDS011;2417;52.482;13.432;2022-10-31T10:52:47;39.50;;;22.40;;
4806;SDS011;2417;52.482;13.432;2022-10-31T10:55:20;45.70;;;22.27;;
4806;SDS011;2417;52.482;13.432;2022-10-31T10:57:54;49.23;;;22.57;;
4806;SDS011;2417;52.482;13.432;2022-10-31T11:00:24;54.10;;;25.37;;
4806;SDS011;2417;52.482;13.432;2022-10-31T11:02:52;54.17;;;23.83;;
4806;SDS011;2417;52.482;13.432;2022-10-31T11:05:23;53.40;;;24.23;;
4806;SDS011;2417;52.482;13.432;2022-10-31T11:07:53;151.03;;;79.17;;
4806;SDS011;2417;52.482;13.432;2022-10-31T11:10:20;49.43;;;25.77;;
4806;SDS011;2417;52.482;13.432;2022-10-31T11:12:57;102.87;;;49.90;;
4806;SDS011;2417;52.482;13.432;2022-10-31T11:15:26;149.23;;;70.60;;
4806;SDS011;2417;52.482;13.432;2022-10-31T11:17:55;51.07;;;24.20;;
4806;SDS011;2417;52.482;13.432;2022-10-31T11:20:25;67.47;;;28.93;;
4806;SDS011;2417;52.482;13.432;2022-10-31T11:23:15;66.67;;;35.00;;
4806;SDS011;2417;52.482;13.432;2022-10-31T11:25:50;67.97;;;34.73;;
4806;SDS011;2417;52.482;13.432;2022-10-31T11:28:18;51.17;;;25.20;;
4806;SDS011;2417;52.482;13.432;2022-10-31T11:30:47;50.07;;;24.10;;
4806;SDS011;2417;52.482;13.432;2022-10-31T11:33:16;49.30;;;25.67;;
4806;SDS011;2417;52.482;13.432;2022-10-31T11:35:45;53.67;;;27.07;;
4806;SDS011;2417;52.482;13.432;2022-10-31T11:38:18;59.37;;;33.20;;
4806;SDS011;2417;52.482;13.432;2022-10-31T11:40:53;63.30;;;31.20;;
4806;SDS011;2417;52.482;13.432;2022-10-31T11:43:22;43.20;;;23.10;;
4806;SDS011;2417;52.482;13.432;2022-10-31T11:45:50;46.43;;;24.53;;
4806;SDS011;2417;52.482;13.432;2022-10-31T11:48:18;52.50;;;24.53;;
4806;SDS011;2417;52.482;13.432;2022-10-31T11:50:47;47.23;;;24.43;;
4806;SDS011;2417;52.482;13.432;2022-10-31T11:53:16;47.27;;;23.27;;
4806;SDS011;2417;52.482;13.432;2022-10-31T11:56:03;46.70;;;23.50;;
4806;SDS011;2417;52.482;13.432;2022-10-31T11:58:31;46.77;;;25.30;;
4806;SDS011;2417;52.482;13.432;2022-10-31T12:00:59;43.37;;;24.57;;
4806;SDS011;2417;52.482;13.432;2022-10-31T12:03:29;43.00;;;24.03;;
4806;SDS011;2417;52.482;13.432;2022-10-31T12:06:02;52.57;;;25.47;;
4806;SDS011;2417;52.482;13.432;2022-10-31T12:08:31;53.87;;;24.93;;
4806;SDS011;2417;52.482;13.432;2022-10-31T12:11:02;54.67;;;25.20;;
4806;SDS011;2417;52.482;13.432;2022-10-31T12:13:32;43.43;;;23.57;;
4806;SDS011;2417;52.482;13.432;2022-10-31T12:16:02;43.37;;;24.57;;
4806;SDS011;2417;52.482;13.432;2022-10-31T12:18:37;49.23;;;24.30;;
4806;SDS011;2417;52.482;13.432;2022-10-31T12:21:13;47.27;;;24.00;;
4806;SDS011;2417;52.482;13.432;2022-10-31T12:23:46;46.30;;;24.37;;
4806;SDS011;2417;52.482;13.432;2022-10-31T12:26:18;51.57;;;23.67;;
4806;SDS011;2417;52.482;13.432;2022-10-31T12:28:56;43.33;;;22.80;;
4806;SDS011;2417;52.482;13.432;2022-10-31T12:31:32;46.63;;;24.30;;
4806;SDS011;2417;52.482;13.432;2022-10-31T12:34:06;57.07;;;25.80;;
4806;SDS011;2417;52.482;13.432;2022-10-31T12:36:43;54.00;;;26.30;;
4806;SDS011;2417;52.482;13.432;2022-10-31T12:39:25;57.03;;;29.53;;
4806;SDS011;2417;52.482;13.432;2022-10-31T12:42:00;62.13;;;30.00;;
4806;SDS011;2417;52.482;13.432;2022-10-31T12:47:20;111.40;;;51.83;;
4806;SDS011;2417;52.482;13.432;2022-10-31T12:49:52;71.73;;;32.87;;
4806;SDS011;2417;52.482;13.432;2022-10-31T12:52:26;116.53;;;52.97;;
4806;SDS011;2417;52.482;13.432;2022-10-31T12:55:03;77.37;;;38.23;;
4806;SDS011;2417;52.482;13.432;2022-10-31T12:57:36;90.23;;;43.10;;
4806;SDS011;2417;52.482;13.432;2022-10-31T13:00:09;170.83;;;73.97;;
4806;SDS011;2417;52.482;13.432;2022-10-31T13:02:39;99.20;;;43.87;;
4806;SDS011;2417;52.482;13.432;2022-10-31T13:05:11;69.90;;;33.30;;
4806;SDS011;2417;52.482;13.432;2022-10-31T13:07:41;57.83;;;29.40;;
4806;SDS011;2417;52.482;13.432;2022-10-31T13:10:14;62.10;;;30.03;;
4806;SDS011;2417;52.482;13.432;2022-10-31T13:12:45;150.73;;;63.03;;
4806;SDS011;2417;52.482;13.432;2022-10-31T13:15:14;110.50;;;50.30;;
4806;SDS011;2417;52.482;13.432;2022-10-31T13:17:44;77.30;;;37.07;;
4806;SDS011;2417;52.482;13.432;2022-10-31T13:20:16;52.70;;;28.67;;
4806;SDS011;2417;52.482;13.432;2022-10-31T13:22:45;53.00;;;28.60;;
4806;SDS011;2417;52.482;13.432;2022-10-31T13:25:15;88.70;;;39.57;;
4806;SDS011;2417;52.482;13.432;2022-10-31T13:27:46;78.37;;;34.87;;
4806;SDS011;2417;52.482;13.432;2022-10-31T13:30:16;74.63;;;31.30;;
4806;SDS011;2417;52.482;13.432;2022-10-31T13:32:46;61.97;;;31.17;;
4806;SDS011;2417;52.482;13.432;2022-10-31T13:35:16;54.47;;;29.63;;
4806;SDS011;2417;52.482;13.432;2022-10-31T13:37:46;68.00;;;30.77;;
4806;SDS011;2417;52.482;13.432;2022-10-31T13:40:21;64.70;;;30.87;;
4806;SDS011;2417;52.482;13.432;2022-10-31T13:42:55;58.27;;;30.40;;
4806;SDS011;2417;52.482;13.432;2022-10-31T13:45:25;60.30;;;29.60;;
4806;SDS011;2417;52.482;13.432;2022-10-31T13:47:57;66.63;;;31.20;;
4806;SDS011;2417;52.482;13.432;2022-10-31T13:50:26;63.50;;;29.50;;
4806;SDS011;2417;52.482;13.432;2022-10-31T13:53:11;56.40;;;30.73;;
4806;SDS011;2417;52.482;13.432;2022-10-31T13:55:40;61.27;;;29.80;;
4806;SDS011;2417;52.482;13.432;2022-10-31T13:58:21;59.93;;;31.57;;
4806;SDS011;2417;52.482;13.432;2022-10-31T14:00:59;64.30;;;31.60;;
4806;SDS011;2417;52.482;13.432;2022-10-31T14:03:29;70.60;;;31.93;;
4806;SDS011;2417;52.482;13.432;2022-10-31T14:06:18;71.43;;;34.30;;
4806;SDS011;2417;52.482;13.432;2022-10-31T14:08:47;62.67;;;34.37;;
4806;SDS011;2417;52.482;13.432;2022-10-31T14:11:18;71.53;;;33.50;;
4806;SDS011;2417;52.482;13.432;2022-10-31T14:13:49;81.50;;;33.50;;
4806;SDS011;2417;52.482;13.432;2022-10-31T14:16:18;72.27;;;34.30;;
4806;SDS011;2417;52.482;13.432;2022-10-31T14:18:48;76.03;;;34.20;;
4806;SDS011;2417;52.482;13.432;2022-10-31T14:21:26;74.87;;;34.97;;
4806;SDS011;2417;52.482;13.432;2022-10-31T14:23:55;64.83;;;34.10;;
4806;SDS011;2417;52.482;13.432;2022-10-31T14:26:35;73.67;;;35.60;;
4806;SDS011;2417;52.482;13.432;2022-10-31T14:31:53;82.40;;;35.20;;
4806;SDS011;2417;52.482;13.432;2022-10-31T14:34:26;63.40;;;34.00;;
4806;SDS011;2417;52.482;13.432;2022-10-31T14:37:11;66.73;;;36.57;;
4806;SDS011;2417;52.482;13.432;2022-10-31T14:39:44;73.20;;;35.30;;
4806;SDS011;2417;52.482;13.432;2022-10-31T14:42:19;69.40;;;34.33;;
4806;SDS011;2417;52.482;13.432;2022-10-31T14:45:04;71.70;;;34.60;;
4806;SDS011;2417;52.482;13.432;2022-10-31T14:47:39;69.30;;;35.20;;
4806;SDS011;2417;52.482;13.432;2022-10-31T14:52:53;73.20;;;36.80;;
4806;SDS011;2417;52.482;13.432;2022-10-31T14:55:22;73.57;;;36.70;;
4806;SDS011;2417;52.482;13.432;2022-10-31T14:57:51;85.47;;;39.27;;
4806;SDS011;2417;52.482;13.432;2022-10-31T15:00:20;69.77;;;37.00;;
4806;SDS011;2417;52.482;13.432;2022-10-31T15:02:53;74.07;;;36.50;;
4806;SDS011;2417;52.482;13.432;2022-10-31T15:05:25;73.60;;;39.37;;
4806;SDS011;2417;52.482;13.432;2022-10-31T15:07:55;77.67;;;41.37;;
4806;SDS011;2417;52.482;13.432;2022-10-31T15:10:23;77.93;;;41.43;;
4806;SDS011;2417;52.482;13.432;2022-10-31T15:12:52;88.63;;;43.03;;
4806;SDS011;2417;52.482;13.432;2022-10-31T15:15:21;82.93;;;42.97;;